Terminal Aerodrome Forecast
Issued by NWS

Home | Current Version | Previous Version | Text Only | Print | Product List | Glossary On
Versions: 1 2 3 4 5 6 7 8 9 10 11 12 13 14 15
247
FTUS46 KMTR 280521
TAFOAK
TAF
KOAK 280521Z 2806/2912 28010KT P6SM BKN015
     FM281000 28005KT P6SM OVC012
     FM281700 27007KT P6SM SCT015
     FM282200 28013KT P6SM FEW010
     FM290400 30005KT P6SM FEW010=

USA.gov is the U.S. government's official web portal to all federal, state and local government web resources and services.